Terminal Aerodrome Forecast
Issued by NWS

Home | Current Version | Previous Version | Text Only | Print | Product List | Glossary On
Versions: 1 2 3 4 5 6 7 8 9 10 11 12 13 14 15
000
FTUS45 KRIW 201500 AAB
TAFJAC
TAF AMD
KJAC 201501Z 2015/2112 VRB05KT 4SM BR SCT004 BKN090
      TEMPO 2015/2018 2SM BR BKN004
     FM201800 VRB05KT P6SM SCT050 BKN090
     FM202200 23011G18KT P6SM VCTS FEW040CB BKN070
     FM210300 19009KT P6SM VCSH SCT070 BKN110
     FM210700 VRB06KT P6SM SCT080 BKN150
      AMD LTD TO CLD VIS AND WIND=

USA.gov is the U.S. government's official web portal to all federal, state and local government web resources and services.